sensor_id;sensor_type;location;lat;lon;timestamp;pressure;altitude;pressure_sealevel;temperature;humidity
22649;BME280;11491;41.942;24.220;2023-05-10T00:01:01;90094.47;;;7.28;100.00
22649;BME280;11491;41.942;24.220;2023-05-10T00:03:28;90102.94;;;7.12;100.00
22649;BME280;11491;41.942;24.220;2023-05-10T00:05:54;90107.81;;;7.02;100.00
22649;BME280;11491;41.942;24.220;2023-05-10T00:08:21;90102.38;;;6.98;100.00
22649;BME280;11491;41.942;24.220;2023-05-10T00:10:48;90075.22;;;6.66;100.00
22649;BME280;11491;41.942;24.220;2023-05-10T00:13:18;90104.44;;;6.58;100.00
22649;BME280;11491;41.942;24.220;2023-05-10T00:15:45;90106.47;;;6.52;100.00
22649;BME280;11491;41.942;24.220;2023-05-10T00:18:11;90102.09;;;6.56;100.00
22649;BME280;11491;41.942;24.220;2023-05-10T00:20:38;90090.06;;;6.50;100.00
22649;BME280;11491;41.942;24.220;2023-05-10T00:23:05;90097.22;;;6.58;100.00
22649;BME280;11491;41.942;24.220;2023-05-10T00:25:31;90095.84;;;6.52;100.00
22649;BME280;11491;41.942;24.220;2023-05-10T00:27:58;90093.97;;;6.61;100.00
22649;BME280;11491;41.942;24.220;2023-05-10T00:30:28;90097.38;;;6.71;100.00
22649;BME280;11491;41.942;24.220;2023-05-10T00:32:54;90096.13;;;6.77;100.00
22649;BME280;11491;41.942;24.220;2023-05-10T00:35:21;90086.47;;;6.63;100.00
22649;BME280;11491;41.942;24.220;2023-05-10T00:37:48;90101.78;;;6.66;100.00
22649;BME280;11491;41.942;24.220;2023-05-10T00:40:15;90097.09;;;6.63;100.00
22649;BME280;11491;41.942;24.220;2023-05-10T00:42:41;90098.97;;;6.72;100.00
22649;BME280;11491;41.942;24.220;2023-05-10T00:45:08;90089.25;;;6.76;100.00
22649;BME280;11491;41.942;24.220;2023-05-10T00:47:37;90095.53;;;6.71;100.00
22649;BME280;11491;41.942;24.220;2023-05-10T00:50:05;90096.00;;;6.64;100.00
22649;BME280;11491;41.942;24.220;2023-05-10T00:52:32;90098.97;;;6.54;100.00
22649;BME280;11491;41.942;24.220;2023-05-10T00:54:59;90098.34;;;6.57;100.00
22649;BME280;11491;41.942;24.220;2023-05-10T00:57:26;90099.63;;;6.51;100.00
22649;BME280;11491;41.942;24.220;2023-05-10T00:59:53;90096.94;;;6.42;100.00
22649;BME280;11491;41.942;24.220;2023-05-10T01:02:20;90097.72;;;6.43;100.00
22649;BME280;11491;41.942;24.220;2023-05-10T01:04:48;90100.06;;;6.36;100.00
22649;BME280;11491;41.942;24.220;2023-05-10T01:07:16;90099.91;;;6.41;100.00
22649;BME280;11491;41.942;24.220;2023-05-10T01:09:42;90094.75;;;6.36;100.00
22649;BME280;11491;41.942;24.220;2023-05-10T01:12:09;90102.44;;;6.46;100.00
22649;BME280;11491;41.942;24.220;2023-05-10T01:14:36;90097.72;;;6.43;100.00
22649;BME280;11491;41.942;24.220;2023-05-10T01:17:03;90090.22;;;6.45;100.00
22649;BME280;11491;41.942;24.220;2023-05-10T01:19:31;90096.47;;;6.49;100.00
22649;BME280;11491;41.942;24.220;2023-05-10T01:22:12;90101.78;;;6.32;100.00
22649;BME280;11491;41.942;24.220;2023-05-10T01:25:09;90105.69;;;6.34;100.00
22649;BME280;11491;41.942;24.220;2023-05-10T01:28:00;90112.09;;;6.24;100.00
22649;BME280;11491;41.942;24.220;2023-05-10T01:31:00;90098.66;;;6.12;100.00
22649;BME280;11491;41.942;24.220;2023-05-10T01:33:34;90108.97;;;6.14;100.00
22649;BME280;11491;41.942;24.220;2023-05-10T01:36:05;90101.75;;;5.97;100.00
22649;BME280;11491;41.942;24.220;2023-05-10T01:38:41;90107.34;;;5.87;100.00
22649;BME280;11491;41.942;24.220;2023-05-10T01:41:16;90105.13;;;5.89;100.00
22649;BME280;11491;41.942;24.220;2023-05-10T01:43:50;90110.44;;;5.89;100.00
22649;BME280;11491;41.942;24.220;2023-05-10T01:46:24;90105.75;;;5.86;100.00
22649;BME280;11491;41.942;24.220;2023-05-10T01:48:55;90110.44;;;5.89;100.00
22649;BME280;11491;41.942;24.220;2023-05-10T01:51:25;90112.31;;;5.79;100.00
22649;BME280;11491;41.942;24.220;2023-05-10T01:53:59;90110.41;;;5.71;100.00
22649;BME280;11491;41.942;24.220;2023-05-10T01:56:28;90117.44;;;5.76;100.00
22649;BME280;11491;41.942;24.220;2023-05-10T01:58:56;90112.28;;;5.71;100.00
22649;BME280;11491;41.942;24.220;2023-05-10T02:01:24;90112.28;;;5.62;100.00
22649;BME280;11491;41.942;24.220;2023-05-10T02:03:54;90112.91;;;5.59;100.00
22649;BME280;11491;41.942;24.220;2023-05-10T02:06:22;90123.75;;;5.40;100.00
22649;BME280;11491;41.942;24.220;2023-05-10T02:08:51;90118.56;;;5.35;100.00
22649;BME280;11491;41.942;24.220;2023-05-10T02:11:19;90127.09;;;5.23;100.00
22649;BME280;11491;41.942;24.220;2023-05-10T02:13:49;90130.31;;;5.11;100.00
22649;BME280;11491;41.942;24.220;2023-05-10T02:16:17;90125.31;;;5.10;100.00
22649;BME280;11491;41.942;24.220;2023-05-10T02:18:46;90124.97;;;5.03;100.00
22649;BME280;11491;41.942;24.220;2023-05-10T02:21:16;90123.16;;;4.89;100.00
22649;BME280;11491;41.942;24.220;2023-05-10T02:23:45;90121.50;;;4.71;100.00
22649;BME280;11491;41.942;24.220;2023-05-10T02:26:12;90127.06;;;4.61;100.00
22649;BME280;11491;41.942;24.220;2023-05-10T02:28:40;90110.81;;;4.53;100.00
22649;BME280;11491;41.942;24.220;2023-05-10T02:31:09;90127.41;;;4.68;100.00
22649;BME280;11491;41.942;24.220;2023-05-10T02:33:38;90125.84;;;4.67;100.00
22649;BME280;11491;41.942;24.220;2023-05-10T02:36:07;90117.59;;;4.68;100.00
22649;BME280;11491;41.942;24.220;2023-05-10T02:38:37;90112.81;;;4.79;100.00
22649;BME280;11491;41.942;24.220;2023-05-10T02:41:04;90111.03;;;4.88;100.00
22649;BME280;11491;41.942;24.220;2023-05-10T02:43:33;90112.25;;;4.82;100.00
22649;BME280;11491;41.942;24.220;2023-05-10T02:46:00;90111.56;;;4.77;100.00
22649;BME280;11491;41.942;24.220;2023-05-10T02:48:27;90118.19;;;4.88;100.00
22649;BME280;11491;41.942;24.220;2023-05-10T02:50:56;90116.19;;;4.93;100.00
22649;BME280;11491;41.942;24.220;2023-05-10T02:53:31;90114.50;;;4.97;100.00
22649;BME280;11491;41.942;24.220;2023-05-10T02:56:03;90123.53;;;4.96;100.00
22649;BME280;11491;41.942;24.220;2023-05-10T02:58:32;90117.03;;;5.03;100.00
22649;BME280;11491;41.942;24.220;2023-05-10T03:00:59;90122.69;;;5.10;100.00
22649;BME280;11491;41.942;24.220;2023-05-10T03:03:26;90114.84;;;5.05;100.00
22649;BME280;11491;41.942;24.220;2023-05-10T03:05:53;90113.91;;;5.01;100.00
22649;BME280;11491;41.942;24.220;2023-05-10T03:08:21;90120.06;;;5.18;100.00
22649;BME280;11491;41.942;24.220;2023-05-10T03:11:01;90126.94;;;5.20;100.00
22649;BME280;11491;41.942;24.220;2023-05-10T03:13:39;90126.75;;;5.16;100.00
22649;BME280;11491;41.942;24.220;2023-05-10T03:16:11;90131.44;;;5.19;100.00
22649;BME280;11491;41.942;24.220;2023-05-10T03:18:43;90131.91;;;5.21;100.00
22649;BME280;11491;41.942;24.220;2023-05-10T03:21:11;90128.50;;;5.21;100.00
22649;BME280;11491;41.942;24.220;2023-05-10T03:23:43;90134.56;;;5.21;100.00
22649;BME280;11491;41.942;24.220;2023-05-10T03:26:17;90131.44;;;5.19;100.00
22649;BME280;11491;41.942;24.220;2023-05-10T03:28:48;90133.38;;;5.27;100.00
22649;BME280;11491;41.942;24.220;2023-05-10T03:31:17;90130.22;;;5.25;100.00
22649;BME280;11491;41.942;24.220;2023-05-10T03:33:47;90136.00;;;5.27;100.00
22649;BME280;11491;41.942;24.220;2023-05-10T03:36:14;90135.88;;;5.32;100.00
22649;BME280;11491;41.942;24.220;2023-05-10T03:38:41;90141.53;;;5.39;100.00
22649;BME280;11491;41.942;24.220;2023-05-10T03:41:08;90137.00;;;5.40;100.00
22649;BME280;11491;41.942;24.220;2023-05-10T03:43:35;90139.44;;;5.28;100.00
22649;BME280;11491;41.942;24.220;2023-05-10T03:46:03;90133.31;;;5.18;100.00
22649;BME280;11491;41.942;24.220;2023-05-10T03:48:33;90131.34;;;5.33;100.00
22649;BME280;11491;41.942;24.220;2023-05-10T03:51:00;90132.66;;;5.44;100.00
22649;BME280;11491;41.942;24.220;2023-05-10T03:53:27;90134.38;;;5.49;100.00
22649;BME280;11491;41.942;24.220;2023-05-10T03:55:54;90132.03;;;5.47;100.00
22649;BME280;11491;41.942;24.220;2023-05-10T03:58:21;90133.91;;;5.47;100.00
22649;BME280;11491;41.942;24.220;2023-05-10T04:00:47;90135.31;;;5.53;100.00
22649;BME280;11491;41.942;24.220;2023-05-10T04:03:15;90143.91;;;5.50;100.00
22649;BME280;11491;41.942;24.220;2023-05-10T04:05:43;90147.75;;;5.44;100.00
22649;BME280;11491;41.942;24.220;2023-05-10T04:08:09;90148.88;;;5.51;100.00
22649;BME280;11491;41.942;24.220;2023-05-10T04:10:36;90152.69;;;5.59;100.00
22649;BME280;11491;41.942;24.220;2023-05-10T04:13:03;90136.28;;;5.57;100.00
22649;BME280;11491;41.942;24.220;2023-05-10T04:15:29;90143.63;;;5.60;100.00
22649;BME280;11491;41.942;24.220;2023-05-10T04:17:56;90150.63;;;5.56;100.00
22649;BME280;11491;41.942;24.220;2023-05-10T04:20:24;90145.03;;;5.66;100.00
22649;BME280;11491;41.942;24.220;2023-05-10T04:22:51;90135.03;;;5.63;100.00
22649;BME280;11491;41.942;24.220;2023-05-10T04:25:18;90138.47;;;5.55;100.00
22649;BME280;11491;41.942;24.220;2023-05-10T04:27:44;90143.06;;;5.40;100.00
22649;BME280;11491;41.942;24.220;2023-05-10T04:30:11;90145.88;;;5.35;100.00
22649;BME280;11491;41.942;24.220;2023-05-10T04:32:38;90142.16;;;5.45;100.00
22649;BME280;11491;41.942;24.220;2023-05-10T04:35:05;90150.75;;;5.51;100.00
22649;BME280;11491;41.942;24.220;2023-05-10T04:37:34;90144.38;;;5.52;100.00
22649;BME280;11491;41.942;24.220;2023-05-10T04:40:00;90144.97;;;5.49;100.00
22649;BME280;11491;41.942;24.220;2023-05-10T04:42:28;90140.72;;;5.39;100.00
22649;BME280;11491;41.942;24.220;2023-05-10T04:44:55;90146.81;;;5.39;100.00
22649;BME280;11491;41.942;24.220;2023-05-10T04:47:22;90151.66;;;5.37;100.00
22649;BME280;11491;41.942;24.220;2023-05-10T04:49:51;90146.28;;;5.29;100.00
22649;BME280;11491;41.942;24.220;2023-05-10T04:52:18;90147.22;;;5.24;100.00
22649;BME280;11491;41.942;24.220;2023-05-10T04:54:46;90138.44;;;5.15;100.00
22649;BME280;11491;41.942;24.220;2023-05-10T04:57:16;90061.34;;;4.63;100.00
22649;BME280;11491;41.942;24.220;2023-05-10T04:59:42;90131.91;;;5.21;100.00
22649;BME280;11491;41.942;24.220;2023-05-10T05:02:09;90039.19;;;4.59;100.00
22649;BME280;11491;41.942;24.220;2023-05-10T05:04:36;90126.75;;;5.16;100.00
22649;BME280;11491;41.942;24.220;2023-05-10T05:07:03;90139.16;;;5.38;100.00
22649;BME280;11491;41.942;24.220;2023-05-10T05:09:30;90113.34;;;5.21;100.00
22649;BME280;11491;41.942;24.220;2023-05-10T05:11:58;90156.59;;;5.30;100.00
22649;BME280;11491;41.942;24.220;2023-05-10T05:14:25;90154.56;;;5.27;100.00
22649;BME280;11491;41.942;24.220;2023-05-10T05:16:52;90153.69;;;5.40;100.00
22649;BME280;11491;41.942;24.220;2023-05-10T05:19:19;90139.38;;;5.19;100.00
22649;BME280;11491;41.942;24.220;2023-05-10T05:21:48;90157.09;;;5.32;100.00
22649;BME280;11491;41.942;24.220;2023-05-10T05:24:15;90055.06;;;4.59;100.00
22649;BME280;11491;41.942;24.220;2023-05-10T05:26:41;90111.38;;;4.95;100.00
22649;BME280;11491;41.942;24.220;2023-05-10T05:29:10;90035.59;;;4.32;100.00
22649;BME280;11491;41.942;24.220;2023-05-10T05:31:37;90052.56;;;4.53;100.00
22649;BME280;11491;41.942;24.220;2023-05-10T05:34:04;90112.00;;;4.92;100.00
22649;BME280;11491;41.942;24.220;2023-05-10T05:36:31;90065.19;;;4.57;100.00
22649;BME280;11491;41.942;24.220;2023-05-10T05:38:58;90118.84;;;4.93;100.00
22649;BME280;11491;41.942;24.220;2023-05-10T05:41:25;90025.13;;;4.27;100.00
22649;BME280;11491;41.942;24.220;2023-05-10T05:43:52;90093.09;;;4.85;100.00
22649;BME280;11491;41.942;24.220;2023-05-10T05:46:20;90151.88;;;5.18;100.00
22649;BME280;11491;41.942;24.220;2023-05-10T05:48:47;90173.63;;;5.29;100.00
22649;BME280;11491;41.942;24.220;2023-05-10T05:51:13;90152.63;;;5.19;100.00
22649;BME280;11491;41.942;24.220;2023-05-10T05:53:43;90104.63;;;4.89;100.00
22649;BME280;11491;41.942;24.220;2023-05-10T05:56:10;90106.59;;;4.75;100.00
22649;BME280;11491;41.942;24.220;2023-05-10T05:58:37;90060.50;;;4.31;100.00
22649;BME280;11491;41.942;24.220;2023-05-10T06:01:06;90075.66;;;4.62;100.00
22649;BME280;11491;41.942;24.220;2023-05-10T06:03:34;90124.63;;;4.95;100.00
22649;BME280;11491;41.942;24.220;2023-05-10T06:06:01;90160.13;;;5.17;100.00
22649;BME280;11491;41.942;24.220;2023-05-10T06:08:28;90112.94;;;4.96;100.00
22649;BME280;11491;41.942;24.220;2023-05-10T06:10:54;90188.66;;;5.43;100.00
22649;BME280;11491;41.942;24.220;2023-05-10T06:13:21;90175.50;;;5.37;100.00
22649;BME280;11491;41.942;24.220;2023-05-10T06:15:48;90134.22;;;5.14;100.00
22649;BME280;11491;41.942;24.220;2023-05-10T06:18:15;90194.56;;;5.39;100.00
22649;BME280;11491;41.942;24.220;2023-05-10T06:20:43;90190.53;;;5.51;100.00
22649;BME280;11491;41.942;24.220;2023-05-10T06:25:45;90169.78;;;5.44;100.00
22649;BME280;11491;41.942;24.220;2023-05-10T06:28:12;90176.34;;;5.47;100.00
22649;BME280;11491;41.942;24.220;2023-05-10T06:30:39;90141.88;;;5.47;100.00
22649;BME280;11491;41.942;24.220;2023-05-10T06:33:05;90181.66;;;5.87;100.00
22649;BME280;11491;41.942;24.220;2023-05-10T06:35:32;90138.13;;;5.56;100.00
22649;BME280;11491;41.942;24.220;2023-05-10T06:38:00;90163.53;;;5.89;100.00
22649;BME280;11491;41.942;24.220;2023-05-10T06:40:27;90175.59;;;6.03;100.00
22649;BME280;11491;41.942;24.220;2023-05-10T06:42:54;90177.03;;;6.18;100.00
22649;BME280;11491;41.942;24.220;2023-05-10T06:45:21;90183.63;;;6.30;100.00
22649;BME280;11491;41.942;24.220;2023-05-10T06:47:48;90183.16;;;6.28;100.00
22649;BME280;11491;41.942;24.220;2023-05-10T06:50:15;90148.63;;;6.10;100.00
22649;BME280;11491;41.942;24.220;2023-05-10T06:52:41;90175.84;;;6.42;100.00
22649;BME280;11491;41.942;24.220;2023-05-10T06:55:10;90126.16;;;6.25;100.00
22649;BME280;11491;41.942;24.220;2023-05-10T06:57:37;90178.50;;;6.68;100.00
22649;BME280;11491;41.942;24.220;2023-05-10T07:00:05;90171.50;;;6.81;100.00
22649;BME280;11491;41.942;24.220;2023-05-10T07:02:33;90181.81;;;6.91;99.76
22649;BME280;11491;41.942;24.220;2023-05-10T07:04:59;90187.28;;;7.03;97.96
22649;BME280;11491;41.942;24.220;2023-05-10T07:07:26;90176.00;;;6.98;98.56
22649;BME280;11491;41.942;24.220;2023-05-10T07:09:53;90183.47;;;7.22;97.87
22649;BME280;11491;41.942;24.220;2023-05-10T07:12:23;90176.75;;;7.33;97.97
22649;BME280;11491;41.942;24.220;2023-05-10T07:14:50;90167.97;;;7.32;98.68
22649;BME280;11491;41.942;24.220;2023-05-10T07:17:17;90110.78;;;7.00;96.99
22649;BME280;11491;41.942;24.220;2023-05-10T07:19:44;90182.47;;;7.52;96.93
22649;BME280;11491;41.942;24.220;2023-05-10T07:22:10;90127.19;;;7.11;96.76
22649;BME280;11491;41.942;24.220;2023-05-10T07:24:37;90192.34;;;7.43;96.81
22649;BME280;11491;41.942;24.220;2023-05-10T07:27:04;90182.19;;;7.37;96.02
22649;BME280;11491;41.942;24.220;2023-05-10T07:29:34;90116.44;;;6.90;96.66
22649;BME280;11491;41.942;24.220;2023-05-10T07:32:01;90135.38;;;6.88;96.60
22649;BME280;11491;41.942;24.220;2023-05-10T07:34:28;90197.84;;;7.29;96.20
22649;BME280;11491;41.942;24.220;2023-05-10T07:36:58;90202.69;;;7.36;96.89
22649;BME280;11491;41.942;24.220;2023-05-10T07:39:25;90195.63;;;7.40;97.91
22649;BME280;11491;41.942;24.220;2023-05-10T07:41:52;90196.59;;;7.36;97.65
22649;BME280;11491;41.942;24.220;2023-05-10T07:44:19;90196.44;;;7.32;98.14
22649;BME280;11491;41.942;24.220;2023-05-10T07:46:50;90199.22;;;7.53;99.83
22649;BME280;11491;41.942;24.220;2023-05-10T07:49:17;90198.53;;;7.65;98.09
22649;BME280;11491;41.942;24.220;2023-05-10T07:51:44;90176.97;;;7.58;96.85
22649;BME280;11491;41.942;24.220;2023-05-10T07:54:11;90200.91;;;7.58;94.21
22649;BME280;11491;41.942;24.220;2023-05-10T07:56:38;90201.47;;;7.25;94.47
22649;BME280;11491;41.942;24.220;2023-05-10T07:59:05;90209.28;;;7.12;97.29
22649;BME280;11491;41.942;24.220;2023-05-10T08:01:34;90209.63;;;7.02;97.50
22649;BME280;11491;41.942;24.220;2023-05-10T08:04:05;90208.69;;;6.98;99.78
22649;BME280;11491;41.942;24.220;2023-05-10T08:06:32;90215.25;;;6.92;99.70
22649;BME280;11491;41.942;24.220;2023-05-10T08:08:59;90216.81;;;6.93;99.12
22649;BME280;11491;41.942;24.220;2023-05-10T08:11:26;90210.25;;;6.82;100.00
22649;BME280;11491;41.942;24.220;2023-05-10T08:13:53;90214.00;;;6.81;100.00
22649;BME280;11491;41.942;24.220;2023-05-10T08:16:20;90227.31;;;6.81;100.00
22649;BME280;11491;41.942;24.220;2023-05-10T08:18:47;90221.97;;;6.72;100.00
22649;BME280;11491;41.942;24.220;2023-05-10T08:21:16;90224.00;;;6.66;99.40
22649;BME280;11491;41.942;24.220;2023-05-10T08:23:42;90225.06;;;6.65;100.00
22649;BME280;11491;41.942;24.220;2023-05-10T08:26:10;90201.16;;;6.48;100.00
22649;BME280;11491;41.942;24.220;2023-05-10T08:28:36;90225.88;;;6.75;100.00
22649;BME280;11491;41.942;24.220;2023-05-10T08:31:04;90224.31;;;6.56;100.00
22649;BME280;11491;41.942;24.220;2023-05-10T08:33:31;90228.66;;;6.52;100.00
22649;BME280;11491;41.942;24.220;2023-05-10T08:35:57;90227.22;;;6.37;100.00
22649;BME280;11491;41.942;24.220;2023-05-10T08:38:26;90190.19;;;6.23;100.00
22649;BME280;11491;41.942;24.220;2023-05-10T08:40:54;90126.81;;;5.73;100.00
22649;BME280;11491;41.942;24.220;2023-05-10T08:43:25;90135.09;;;5.80;100.00
22649;BME280;11491;41.942;24.220;2023-05-10T08:45:54;90172.03;;;6.08;100.00
22649;BME280;11491;41.942;24.220;2023-05-10T08:48:23;90168.31;;;6.09;100.00
22649;BME280;11491;41.942;24.220;2023-05-10T08:50:52;90146.00;;;5.70;100.00
22649;BME280;11491;41.942;24.220;2023-05-10T08:53:19;90125.72;;;5.74;100.00
22649;BME280;11491;41.942;24.220;2023-05-10T08:55:49;90232.56;;;6.46;100.00
22649;BME280;11491;41.942;24.220;2023-05-10T08:58:16;90211.59;;;6.27;100.00
22649;BME280;11491;41.942;24.220;2023-05-10T09:00:45;90147.91;;;5.87;100.00
22649;BME280;11491;41.942;24.220;2023-05-10T09:03:13;90226.78;;;6.44;100.00
22649;BME280;11491;41.942;24.220;2023-05-10T09:05:41;90145.41;;;5.91;100.00
22649;BME280;11491;41.942;24.220;2023-05-10T09:08:08;90229.13;;;6.45;100.00
22649;BME280;11491;41.942;24.220;2023-05-10T09:10:35;90226.31;;;6.42;100.00
22649;BME280;11491;41.942;24.220;2023-05-10T09:13:04;90160.16;;;5.97;100.00
22649;BME280;11491;41.942;24.220;2023-05-10T09:15:32;90088.53;;;5.57;100.00
22649;BME280;11491;41.942;24.220;2023-05-10T09:17:58;90223.03;;;6.45;100.00
22649;BME280;11491;41.942;24.220;2023-05-10T09:20:27;90221.81;;;6.51;100.00
22649;BME280;11491;41.942;24.220;2023-05-10T09:22:54;90221.66;;;6.56;100.00
22649;BME280;11491;41.942;24.220;2023-05-10T09:25:21;90218.19;;;6.47;100.00
22649;BME280;11491;41.942;24.220;2023-05-10T09:27:48;90216.75;;;6.41;100.00
22649;BME280;11491;41.942;24.220;2023-05-10T09:30:18;90225.50;;;6.33;100.00
22649;BME280;11491;41.942;24.220;2023-05-10T09:32:50;90208.19;;;6.53;100.00
22649;BME280;11491;41.942;24.220;2023-05-10T09:35:18;90216.94;;;6.53;100.00
22649;BME280;11491;41.942;24.220;2023-05-10T09:37:47;90216.78;;;6.58;100.00
22649;BME280;11491;41.942;24.220;2023-05-10T09:40:15;90195.47;;;6.23;100.00
22649;BME280;11491;41.942;24.220;2023-05-10T09:42:51;90218.78;;;6.27;100.00
22649;BME280;11491;41.942;24.220;2023-05-10T09:45:20;90208.75;;;6.23;100.00
22649;BME280;11491;41.942;24.220;2023-05-10T09:47:47;90207.22;;;6.22;100.00
22649;BME280;11491;41.942;24.220;2023-05-10T09:50:13;90197.84;;;6.16;100.00
22649;BME280;11491;41.942;24.220;2023-05-10T09:52:48;90207.97;;;6.23;100.00
22649;BME280;11491;41.942;24.220;2023-05-10T09:55:16;90206.06;;;6.06;100.00
22649;BME280;11491;41.942;24.220;2023-05-10T09:57:43;90204.22;;;6.15;100.00
22649;BME280;11491;41.942;24.220;2023-05-10T10:00:10;90209.53;;;6.15;100.00
22649;BME280;11491;41.942;24.220;2023-05-10T10:02:45;90213.91;;;6.11;100.00
22649;BME280;11491;41.942;24.220;2023-05-10T10:05:12;90207.50;;;6.21;100.00
22649;BME280;11491;41.942;24.220;2023-05-10T10:07:39;90204.88;;;6.30;100.00
22649;BME280;11491;41.942;24.220;2023-05-10T10:10:07;90206.31;;;6.44;100.00
22649;BME280;11491;41.942;24.220;2023-05-10T10:12:37;90196.78;;;6.52;100.00
22649;BME280;11491;41.942;24.220;2023-05-10T10:15:04;90202.72;;;6.49;100.00
22649;BME280;11491;41.942;24.220;2023-05-10T10:17:32;90208.34;;;6.39;100.00
22649;BME280;11491;41.942;24.220;2023-05-10T10:20:04;90208.78;;;6.32;100.00
22649;BME280;11491;41.942;24.220;2023-05-10T10:22:31;90205.03;;;6.33;100.00
22649;BME280;11491;41.942;24.220;2023-05-10T10:24:58;90207.25;;;6.40;100.00
22649;BME280;11491;41.942;24.220;2023-05-10T10:27:32;90201.59;;;6.33;100.00
22649;BME280;11491;41.942;24.220;2023-05-10T10:30:06;90195.47;;;6.23;100.00
22649;BME280;11491;41.942;24.220;2023-05-10T10:32:47;90199.06;;;6.10;100.00
22649;BME280;11491;41.942;24.220;2023-05-10T10:35:20;90205.13;;;6.02;100.00
22649;BME280;11491;41.942;24.220;2023-05-10T10:37:48;90206.69;;;6.03;100.00
22649;BME280;11491;41.942;24.220;2023-05-10T10:40:23;90163.59;;;5.66;100.00
22649;BME280;11491;41.942;24.220;2023-05-10T10:42:51;90200.25;;;5.95;100.00
22649;BME280;11491;41.942;24.220;2023-05-10T10:45:19;90221.69;;;5.99;100.00
22649;BME280;11491;41.942;24.220;2023-05-10T10:47:46;90212.25;;;5.93;100.00
22649;BME280;11491;41.942;24.220;2023-05-10T10:50:13;90196.84;;;5.95;100.00
22649;BME280;11491;41.942;24.220;2023-05-10T10:52:43;90169.06;;;5.61;100.00
22649;BME280;11491;41.942;24.220;2023-05-10T10:55:12;90149.69;;;5.52;100.00
22649;BME280;11491;41.942;24.220;2023-05-10T10:57:44;90191.69;;;5.98;100.00
22649;BME280;11491;41.942;24.220;2023-05-10T11:00:25;90156.81;;;5.91;100.00
22649;BME280;11491;41.942;24.220;2023-05-10T11:02:57;90168.75;;;6.02;100.00
22649;BME280;11491;41.942;24.220;2023-05-10T11:07:58;90234.34;;;6.11;100.00
22649;BME280;11491;41.942;24.220;2023-05-10T11:10:26;90219.06;;;6.16;100.00
22649;BME280;11491;41.942;24.220;2023-05-10T11:12:59;90138.94;;;5.66;100.00
22649;BME280;11491;41.942;24.220;2023-05-10T11:15:30;90217.34;;;6.20;100.00
22649;BME280;11491;41.942;24.220;2023-05-10T11:17:58;90191.00;;;5.93;100.00
22649;BME280;11491;41.942;24.220;2023-05-10T11:20:27;90219.38;;;6.15;100.00
22649;BME280;11491;41.942;24.220;2023-05-10T11:23:11;90216.25;;;6.13;100.00
22649;BME280;11491;41.942;24.220;2023-05-10T11:25:41;90219.53;;;6.18;100.00
22649;BME280;11491;41.942;24.220;2023-05-10T11:28:09;90219.84;;;6.25;100.00
22649;BME280;11491;41.942;24.220;2023-05-10T11:30:36;90210.19;;;6.30;100.00
22649;BME280;11491;41.942;24.220;2023-05-10T11:33:05;90217.81;;;6.14;100.00
22649;BME280;11491;41.942;24.220;2023-05-10T11:35:36;90213.63;;;6.21;100.00
22649;BME280;11491;41.942;24.220;2023-05-10T11:38:06;90215.22;;;6.40;100.00
22649;BME280;11491;41.942;24.220;2023-05-10T11:40:33;90220.69;;;6.52;100.00
22649;BME280;11491;41.942;24.220;2023-05-10T11:43:00;90216.94;;;6.44;100.00
22649;BME280;11491;41.942;24.220;2023-05-10T11:45:27;90215.84;;;6.37;100.00
22649;BME280;11491;41.942;24.220;2023-05-10T11:47:55;90223.94;;;6.32;100.00
22649;BME280;11491;41.942;24.220;2023-05-10T11:50:21;90216.16;;;6.44;100.00
22649;BME280;11491;41.942;24.220;2023-05-10T11:52:51;90213.69;;;6.56;100.00
22649;BME280;11491;41.942;24.220;2023-05-10T11:55:19;90211.19;;;6.68;100.00
22649;BME280;11491;41.942;24.220;2023-05-10T11:57:46;90209.91;;;6.57;100.00
22649;BME280;11491;41.942;24.220;2023-05-10T12:00:13;90197.88;;;6.60;100.00
22649;BME280;11491;41.942;24.220;2023-05-10T12:02:41;90200.25;;;6.61;100.00
22649;BME280;11491;41.942;24.220;2023-05-10T12:05:08;90200.84;;;6.58;100.00
22649;BME280;11491;41.942;24.220;2023-05-10T12:07:36;90197.91;;;6.51;100.00
22649;BME280;11491;41.942;24.220;2023-05-10T12:10:06;90204.47;;;6.54;100.00
22649;BME280;11491;41.942;24.220;2023-05-10T12:12:39;90207.56;;;6.47;100.00
22649;BME280;11491;41.942;24.220;2023-05-10T12:15:11;90209.56;;;6.33;100.00
22649;BME280;11491;41.942;24.220;2023-05-10T12:17:38;90203.38;;;6.46;100.00
22649;BME280;11491;41.942;24.220;2023-05-10T12:20:19;90202.44;;;6.59;100.00
22649;BME280;11491;41.942;24.220;2023-05-10T12:22:49;90179.56;;;6.41;100.00
22649;BME280;11491;41.942;24.220;2023-05-10T12:25:16;90200.84;;;6.58;100.00
22649;BME280;11491;41.942;24.220;2023-05-10T12:27:50;90203.22;;;6.68;100.00
22649;BME280;11491;41.942;24.220;2023-05-10T12:30:21;90198.34;;;6.88;100.00
22649;BME280;11491;41.942;24.220;2023-05-10T12:32:48;90110.06;;;6.30;100.00
22649;BME280;11491;41.942;24.220;2023-05-10T12:35:15;90194.00;;;6.83;100.00
22649;BME280;11491;41.942;24.220;2023-05-10T12:37:42;90193.66;;;6.85;100.00
22649;BME280;11491;41.942;24.220;2023-05-10T12:40:10;90175.53;;;6.87;100.00
22649;BME280;11491;41.942;24.220;2023-05-10T12:42:38;90176.34;;;6.79;100.00
22649;BME280;11491;41.942;24.220;2023-05-10T12:45:08;90181.81;;;6.74;100.00
22649;BME280;11491;41.942;24.220;2023-05-10T12:47:34;90174.28;;;6.76;100.00
22649;BME280;11491;41.942;24.220;2023-05-10T12:50:02;90159.59;;;6.69;100.00
22649;BME280;11491;41.942;24.220;2023-05-10T12:52:30;90176.94;;;6.76;100.00
22649;BME280;11491;41.942;24.220;2023-05-10T12:54:58;90175.22;;;6.80;100.00
22649;BME280;11491;41.942;24.220;2023-05-10T12:57:25;90179.13;;;6.82;100.00
22649;BME280;11491;41.942;24.220;2023-05-10T12:59:51;90172.59;;;6.88;100.00
22649;BME280;11491;41.942;24.220;2023-05-10T13:02:20;90169.91;;;6.62;100.00